createdAt,value
2023-03-06T00:00:35.565Z,26.58
2023-03-06T00:01:37.394Z,29.65
2023-03-06T00:02:39.187Z,27.00
2023-03-06T00:03:41.021Z,27.79
2023-03-06T00:04:42.907Z,26.86
2023-03-06T00:05:44.845Z,31.26
2023-03-06T00:06:46.657Z,28.21
2023-03-06T00:07:48.467Z,27.59
2023-03-06T00:08:50.274Z,28.38
2023-03-06T00:09:52.085Z,27.41
2023-03-06T00:10:53.929Z,27.24
2023-03-06T00:11:55.723Z,25.90
2023-03-06T00:12:57.529Z,28.67
2023-03-06T00:13:59.341Z,32.51
2023-03-06T00:15:01.170Z,28.45
2023-03-06T00:16:03.031Z,29.49
2023-03-06T00:17:04.841Z,28.80
2023-03-06T00:18:06.651Z,28.55
2023-03-06T00:19:08.461Z,28.51
2023-03-06T00:20:10.769Z,31.61
2023-03-06T00:21:12.629Z,30.38
2023-03-06T00:22:14.429Z,29.65
2023-03-06T00:23:16.221Z,29.34
2023-03-06T00:24:18.034Z,27.64
2023-03-06T00:25:19.940Z,29.05
2023-03-06T00:26:21.809Z,27.25
2023-03-06T00:27:23.613Z,28.57
2023-03-06T00:28:25.414Z,31.34
2023-03-06T00:29:27.231Z,42.76
2023-03-06T00:30:29.027Z,49.33
2023-03-06T00:31:30.913Z,60.80
2023-03-06T00:32:32.737Z,62.56
2023-03-06T00:33:34.604Z,62.37
2023-03-06T00:34:36.414Z,51.47
2023-03-06T00:35:38.276Z,39.86
2023-03-06T00:36:40.181Z,35.67
2023-03-06T00:37:41.984Z,40.28
2023-03-06T00:38:43.796Z,34.81
2023-03-06T00:39:45.605Z,32.02
2023-03-06T00:40:47.400Z,32.06
2023-03-06T00:41:49.273Z,33.52
2023-03-06T00:42:51.058Z,34.27
2023-03-06T00:43:52.878Z,31.91
2023-03-06T00:44:54.704Z,31.82
2023-03-06T00:45:56.553Z,28.99
2023-03-06T00:46:58.362Z,34.39
2023-03-06T00:48:00.161Z,29.85
2023-03-06T00:49:01.978Z,31.07
2023-03-06T00:50:03.831Z,30.69
2023-03-06T00:51:05.589Z,29.33
2023-03-06T00:52:07.445Z,32.99
2023-03-06T00:53:09.249Z,33.80
2023-03-06T00:54:11.092Z,29.90
2023-03-06T00:55:12.956Z,35.30
2023-03-06T00:56:14.732Z,34.51
2023-03-06T00:57:16.582Z,37.89
2023-03-06T00:58:18.384Z,31.21
2023-03-06T00:59:20.190Z,31.53
2023-03-06T01:00:21.990Z,32.41
2023-03-06T01:01:23.793Z,30.16
2023-03-06T01:02:25.737Z,31.44
2023-03-06T01:03:27.597Z,29.20
2023-03-06T01:04:29.415Z,28.69
2023-03-06T01:05:31.203Z,28.29
2023-03-06T01:06:33.010Z,30.64
2023-03-06T01:07:34.883Z,29.95
2023-03-06T01:08:36.683Z,32.84
2023-03-06T01:09:38.488Z,28.05
2023-03-06T01:10:40.295Z,36.87
2023-03-06T01:11:42.101Z,29.51
2023-03-06T01:12:43.989Z,32.74
2023-03-06T01:13:45.785Z,33.79
2023-03-06T01:14:47.686Z,36.67
2023-03-06T01:15:49.502Z,38.89
2023-03-06T01:16:51.330Z,36.58
2023-03-06T01:17:53.175Z,36.05
2023-03-06T01:18:54.978Z,34.37
2023-03-06T01:19:56.789Z,31.49
2023-03-06T01:20:58.700Z,28.36
2023-03-06T01:22:00.494Z,29.12
2023-03-06T01:23:02.345Z,32.39
2023-03-06T01:24:04.141Z,23.67
2023-03-06T01:25:05.958Z,27.83
2023-03-06T01:26:07.875Z,23.85
2023-03-06T01:27:09.668Z,23.56
2023-03-06T01:28:11.514Z,24.59
2023-03-06T01:29:13.330Z,24.54
2023-03-06T01:30:16.560Z,23.83
2023-03-06T01:31:18.405Z,21.35
2023-03-06T01:32:20.246Z,23.65
2023-03-06T01:33:22.069Z,20.74
2023-03-06T01:34:23.867Z,18.24
2023-03-06T01:35:25.681Z,18.93
2023-03-06T01:36:27.471Z,20.93
2023-03-06T01:37:29.297Z,19.21
2023-03-06T01:38:31.146Z,21.91
2023-03-06T01:39:32.951Z,24.18
2023-03-06T01:40:34.746Z,21.32
2023-03-06T01:41:36.561Z,24.05
2023-03-06T01:42:38.403Z,24.95
2023-03-06T01:43:40.230Z,25.06
2023-03-06T01:44:42.063Z,23.79
2023-03-06T01:45:43.869Z,22.77
2023-03-06T01:46:45.640Z,19.05
2023-03-06T01:47:47.462Z,24.11
2023-03-06T01:48:49.301Z,20.49
2023-03-06T01:49:51.094Z,15.63
2023-03-06T01:50:52.885Z,14.35
2023-03-06T01:51:54.715Z,15.16
2023-03-06T01:52:56.508Z,13.57
2023-03-06T01:53:58.364Z,13.49
2023-03-06T01:55:00.148Z,12.88
2023-03-06T01:56:02.065Z,13.81
2023-03-06T01:57:03.864Z,12.61
2023-03-06T01:58:05.654Z,13.44
2023-03-06T01:59:07.501Z,11.09
2023-03-06T02:00:10.115Z,11.01
2023-03-06T02:01:11.958Z,12.22
2023-03-06T02:02:13.859Z,12.03
2023-03-06T02:03:15.669Z,14.93
2023-03-06T02:04:17.516Z,14.19
2023-03-06T02:05:19.312Z,16.15
2023-03-06T02:06:21.114Z,14.71
2023-03-06T02:07:22.926Z,16.79
2023-03-06T02:08:24.714Z,19.93
2023-03-06T02:09:26.566Z,14.56
2023-03-06T02:10:28.372Z,15.69
2023-03-06T02:11:30.189Z,17.59
2023-03-06T02:12:31.988Z,13.33
2023-03-06T02:13:33.777Z,14.17
2023-03-06T02:14:35.620Z,15.02
2023-03-06T02:15:37.419Z,15.36
2023-03-06T02:16:39.304Z,17.13
2023-03-06T02:17:41.137Z,14.93
2023-03-06T02:18:42.938Z,17.07
2023-03-06T02:19:44.782Z,13.01
2023-03-06T02:20:46.582Z,13.56
2023-03-06T02:21:48.393Z,15.64
2023-03-06T02:22:50.181Z,13.25
2023-03-06T02:23:51.981Z,12.15
2023-03-06T02:24:53.822Z,13.73
2023-03-06T02:25:55.632Z,14.36
2023-03-06T02:26:57.423Z,13.95
2023-03-06T02:27:59.228Z,13.82
2023-03-06T02:29:01.027Z,15.69
2023-03-06T02:30:02.889Z,16.41
2023-03-06T02:31:04.723Z,17.43
2023-03-06T02:32:06.544Z,14.42
2023-03-06T02:33:08.485Z,14.62
2023-03-06T02:34:10.369Z,14.32
2023-03-06T02:35:12.207Z,15.28
2023-03-06T02:36:14.111Z,16.39
2023-03-06T02:37:15.913Z,17.29
2023-03-06T02:38:17.711Z,15.55
2023-03-06T02:39:19.524Z,18.07
2023-03-06T02:40:21.361Z,15.96
2023-03-06T02:41:23.170Z,16.33
2023-03-06T02:42:24.964Z,22.72
2023-03-06T02:43:26.671Z,15.34
2023-03-06T02:44:28.477Z,15.23
2023-03-06T02:45:30.337Z,21.04
2023-03-06T02:46:32.352Z,20.14
2023-03-06T02:47:34.144Z,23.46
2023-03-06T02:48:35.957Z,23.79
2023-03-06T02:49:37.758Z,25.55
2023-03-06T02:50:39.611Z,28.92
2023-03-06T02:51:41.398Z,30.63
2023-03-06T02:52:43.209Z,27.57
2023-03-06T02:53:45.005Z,25.40
2023-03-06T02:54:46.800Z,25.37
2023-03-06T02:55:48.662Z,20.41
2023-03-06T02:56:50.439Z,19.18
2023-03-06T02:57:52.249Z,16.83
2023-03-06T02:58:54.038Z,17.75
2023-03-06T02:59:55.836Z,15.84
2023-03-06T03:00:57.790Z,15.61
2023-03-06T03:01:59.595Z,14.29
2023-03-06T03:03:01.392Z,16.19
2023-03-06T03:04:03.233Z,15.30
2023-03-06T03:05:05.105Z,15.88
2023-03-06T03:06:07.254Z,13.50
2023-03-06T03:07:09.063Z,12.10
2023-03-06T03:08:10.886Z,11.83
2023-03-06T03:09:12.698Z,11.21
2023-03-06T03:10:14.497Z,11.33
2023-03-06T03:11:16.338Z,14.17
2023-03-06T03:12:18.154Z,15.36
2023-03-06T03:13:19.962Z,12.95
2023-03-06T03:14:21.766Z,14.43
2023-03-06T03:15:23.556Z,12.77
2023-03-06T03:16:25.406Z,13.53
2023-03-06T03:17:27.207Z,13.57
2023-03-06T03:18:29.006Z,13.10
2023-03-06T03:19:30.828Z,13.09
2023-03-06T03:20:32.622Z,15.35
2023-03-06T03:21:34.468Z,13.90
2023-03-06T03:22:36.274Z,13.28
2023-03-06T03:23:38.081Z,14.41
2023-03-06T03:24:39.907Z,14.38
2023-03-06T03:25:41.689Z,15.21
2023-03-06T03:26:43.631Z,14.68
2023-03-06T03:27:45.443Z,16.22
2023-03-06T03:28:47.262Z,15.96
2023-03-06T03:29:49.046Z,14.94
2023-03-06T03:30:50.870Z,17.92
2023-03-06T03:31:52.686Z,16.59
2023-03-06T03:32:54.495Z,16.89
2023-03-06T03:33:56.291Z,18.76
2023-03-06T03:34:58.098Z,15.97
2023-03-06T03:35:59.908Z,18.59
2023-03-06T03:37:01.766Z,14.66
2023-03-06T03:38:03.574Z,17.12
2023-03-06T03:39:05.381Z,17.89
2023-03-06T03:40:07.273Z,12.91
2023-03-06T03:41:09.180Z,15.15
2023-03-06T03:42:11.048Z,16.49
2023-03-06T03:43:12.849Z,17.10
2023-03-06T03:44:14.657Z,21.99
2023-03-06T03:45:16.468Z,20.09
2023-03-06T03:46:18.416Z,21.92
2023-03-06T03:47:20.226Z,25.11
2023-03-06T03:48:22.026Z,25.49
2023-03-06T03:49:23.936Z,22.01
2023-03-06T03:50:25.773Z,19.37
2023-03-06T03:51:27.567Z,17.92
2023-03-06T03:52:29.400Z,17.69
2023-03-06T03:53:31.198Z,19.06
2023-03-06T03:54:33.011Z,17.20
2023-03-06T03:55:34.825Z,17.34
2023-03-06T03:56:36.614Z,22.89
2023-03-06T03:57:38.468Z,20.18
2023-03-06T03:58:40.276Z,18.71
2023-03-06T03:59:42.082Z,17.43
2023-03-06T04:00:43.892Z,19.29
2023-03-06T04:01:45.711Z,21.94
2023-03-06T04:02:47.556Z,37.29
2023-03-06T04:03:49.364Z,46.37
2023-03-06T04:04:51.206Z,42.61
2023-03-06T04:05:53.087Z,39.15
2023-03-06T04:06:54.986Z,34.23
2023-03-06T04:07:56.833Z,32.77
2023-03-06T04:08:58.644Z,24.59
2023-03-06T04:10:00.460Z,21.69
2023-03-06T04:11:02.260Z,20.59
2023-03-06T04:12:04.065Z,21.73
2023-03-06T04:13:07.540Z,16.61
2023-03-06T04:14:09.544Z,17.64
2023-03-06T04:15:11.389Z,14.84
2023-03-06T04:16:13.331Z,14.79
2023-03-06T04:17:15.172Z,17.99
2023-03-06T04:18:17.027Z,19.61
2023-03-06T04:19:18.824Z,20.52
2023-03-06T04:20:20.621Z,21.35
2023-03-06T04:21:22.422Z,21.05
2023-03-06T04:22:24.239Z,26.99
2023-03-06T04:23:26.113Z,23.99
2023-03-06T04:24:27.912Z,23.64
2023-03-06T04:25:29.716Z,23.83
2023-03-06T04:26:31.533Z,23.61
2023-03-06T04:27:33.339Z,22.98
2023-03-06T04:28:35.187Z,21.96
2023-03-06T04:29:37.004Z,19.84
2023-03-06T04:30:38.786Z,28.81
2023-03-06T04:31:40.644Z,30.19
2023-03-06T04:32:42.467Z,27.64
2023-03-06T04:33:44.351Z,22.81
2023-03-06T04:34:46.164Z,24.24
2023-03-06T04:35:48.021Z,37.74
2023-03-06T04:36:49.787Z,38.12
2023-03-06T04:37:51.599Z,40.02
2023-03-06T04:38:53.468Z,35.71
2023-03-06T04:39:55.348Z,33.88
2023-03-06T04:40:57.151Z,37.70
2023-03-06T04:41:59.058Z,36.08
2023-03-06T04:43:00.857Z,37.64
2023-03-06T04:44:02.697Z,37.31
2023-03-06T04:45:04.502Z,43.70
2023-03-06T04:46:06.470Z,41.55
2023-03-06T04:47:08.404Z,45.23
2023-03-06T04:48:10.423Z,39.46
2023-03-06T04:49:12.297Z,48.61
2023-03-06T04:50:15.628Z,41.90
2023-03-06T04:51:17.433Z,45.96
2023-03-06T04:52:19.230Z,44.78
2023-03-06T04:53:21.032Z,45.29
2023-03-06T04:54:22.889Z,40.60
2023-03-06T04:55:24.690Z,35.20
2023-03-06T04:56:26.590Z,33.69
2023-03-06T04:57:28.384Z,37.39
2023-03-06T04:58:30.189Z,31.89
2023-03-06T04:59:32.040Z,31.62
2023-03-06T05:00:34.158Z,37.67
2023-03-06T05:01:35.956Z,41.87
2023-03-06T05:02:37.762Z,40.75
2023-03-06T05:03:39.614Z,33.81
2023-03-06T05:04:41.456Z,31.97
2023-03-06T05:05:43.263Z,33.81
2023-03-06T05:06:45.088Z,34.80
2023-03-06T05:07:46.885Z,30.77
2023-03-06T05:08:48.681Z,32.34
2023-03-06T05:09:50.530Z,29.22
2023-03-06T05:10:52.326Z,33.15
2023-03-06T05:11:54.137Z,38.83
2023-03-06T05:12:55.936Z,31.60
2023-03-06T05:13:57.725Z,36.48
2023-03-06T05:14:59.573Z,41.70
2023-03-06T05:16:01.389Z,44.85
2023-03-06T05:17:03.191Z,39.40
2023-03-06T05:18:04.987Z,43.86
2023-03-06T05:19:06.795Z,85.50
2023-03-06T05:20:10.465Z,111.78
2023-03-06T05:21:12.290Z,146.07
2023-03-06T05:22:14.107Z,163.59
2023-03-06T05:23:15.927Z,154.94
2023-03-06T05:24:17.722Z,144.09
2023-03-06T05:25:19.562Z,119.97
2023-03-06T05:26:21.375Z,107.16
2023-03-06T05:27:23.215Z,111.83
2023-03-06T05:28:25.014Z,99.59
2023-03-06T05:29:26.819Z,98.05
2023-03-06T05:30:28.974Z,93.01
2023-03-06T05:31:30.887Z,88.07
2023-03-06T05:32:35.088Z,93.51
2023-03-06T05:33:36.275Z,104.86
2023-03-06T05:34:38.091Z,108.46
2023-03-06T05:35:39.947Z,98.84
2023-03-06T05:36:41.814Z,93.14
2023-03-06T05:37:43.614Z,90.24
2023-03-06T05:38:45.523Z,92.64
2023-03-06T05:39:47.334Z,83.38
2023-03-06T05:40:49.172Z,77.85
2023-03-06T05:41:50.979Z,69.91
2023-03-06T05:42:52.772Z,68.15
2023-03-06T05:43:54.589Z,65.24
2023-03-06T05:44:56.395Z,59.75
2023-03-06T05:45:58.272Z,54.23
2023-03-06T05:47:00.071Z,52.05
2023-03-06T05:48:01.872Z,54.29
2023-03-06T05:49:03.694Z,43.89
2023-03-06T05:50:05.624Z,47.84
2023-03-06T05:51:07.492Z,47.48
2023-03-06T05:52:09.298Z,47.43
2023-03-06T05:53:11.095Z,41.35
2023-03-06T05:54:12.922Z,42.84
2023-03-06T05:55:14.709Z,37.53
2023-03-06T05:56:16.685Z,37.55
2023-03-06T05:57:18.522Z,40.13
2023-03-06T05:58:20.341Z,36.29
2023-03-06T05:59:22.144Z,37.93
2023-03-06T06:00:23.940Z,35.39
2023-03-06T06:01:25.810Z,36.65
2023-03-06T06:02:27.720Z,33.46
2023-03-06T06:03:29.556Z,33.52
2023-03-06T06:04:31.422Z,36.13
2023-03-06T06:05:33.195Z,34.11
2023-03-06T06:06:35.072Z,33.81
2023-03-06T06:07:36.853Z,31.78
2023-03-06T06:08:38.668Z,34.45
2023-03-06T06:09:40.467Z,38.89
2023-03-06T06:10:42.282Z,38.64
2023-03-06T06:11:44.126Z,32.91
2023-03-06T06:12:45.969Z,36.53
2023-03-06T06:13:47.764Z,34.26
2023-03-06T06:14:49.452Z,36.52
2023-03-06T06:15:51.279Z,39.27
2023-03-06T06:16:53.244Z,38.73
2023-03-06T06:17:55.056Z,36.36
2023-03-06T06:18:56.850Z,52.96
2023-03-06T06:19:58.669Z,54.79
2023-03-06T06:21:00.492Z,48.69
2023-03-06T06:22:02.337Z,41.95
2023-03-06T06:23:04.386Z,39.25
2023-03-06T06:24:06.173Z,40.19
2023-03-06T06:25:07.992Z,36.27
2023-03-06T06:26:10.293Z,34.35
2023-03-06T06:27:12.144Z,31.03
2023-03-06T06:28:13.977Z,33.22
2023-03-06T06:29:15.761Z,26.84
2023-03-06T06:30:17.560Z,23.11
2023-03-06T06:31:19.411Z,18.84
2023-03-06T06:32:21.279Z,15.40
2023-03-06T06:33:23.379Z,11.82
2023-03-06T06:34:25.204Z,12.49
2023-03-06T06:35:27.049Z,12.00
2023-03-06T06:36:28.802Z,12.07
2023-03-06T06:37:30.650Z,11.35
2023-03-06T06:38:32.471Z,13.81
2023-03-06T06:39:34.262Z,15.67
2023-03-06T06:40:36.085Z,11.38
2023-03-06T06:41:57.274Z,12.65
2023-03-06T06:42:41.547Z,12.11
2023-03-06T06:43:43.383Z,13.61
2023-03-06T06:44:45.190Z,11.69
2023-03-06T06:45:48.902Z,12.56
2023-03-06T06:47:54.363Z,13.64
2023-03-06T06:48:56.128Z,14.46
2023-03-06T06:49:57.937Z,12.63
2023-03-06T06:50:59.870Z,12.73
2023-03-06T06:52:01.663Z,12.84
2023-03-06T06:53:03.505Z,14.84
2023-03-06T06:54:05.317Z,14.63
2023-03-06T06:55:07.128Z,12.44
2023-03-06T06:56:08.941Z,18.01
2023-03-06T06:57:10.761Z,14.64
2023-03-06T06:58:12.619Z,11.84
2023-03-06T06:59:17.019Z,13.08
2023-03-06T07:00:18.144Z,16.72
2023-03-06T07:01:21.020Z,18.17
2023-03-06T07:02:22.802Z,12.52
2023-03-06T07:03:24.666Z,13.74
2023-03-06T07:04:26.459Z,16.64
2023-03-06T07:05:28.285Z,15.43
2023-03-06T07:06:30.121Z,15.41
2023-03-06T07:07:31.934Z,16.66
2023-03-06T07:08:33.785Z,14.25
2023-03-06T07:09:35.571Z,17.04
2023-03-06T07:10:37.378Z,13.29
2023-03-06T07:11:39.192Z,14.76
2023-03-06T07:12:40.997Z,18.39
2023-03-06T07:13:42.956Z,14.44
2023-03-06T07:14:44.759Z,16.32
2023-03-06T07:15:46.598Z,15.74
2023-03-06T07:16:48.472Z,14.05
2023-03-06T07:17:50.479Z,12.41
2023-03-06T07:18:52.356Z,12.33
2023-03-06T07:19:54.150Z,15.51
2023-03-06T07:20:55.964Z,12.71
2023-03-06T07:21:57.864Z,11.63
2023-03-06T07:22:59.701Z,9.79
2023-03-06T07:24:01.575Z,12.44
2023-03-06T07:25:03.384Z,11.59
2023-03-06T07:26:05.324Z,13.11
2023-03-06T07:27:07.149Z,12.29
2023-03-06T07:28:09.012Z,12.23
2023-03-06T07:29:10.927Z,12.27
2023-03-06T07:30:13.365Z,12.61
2023-03-06T07:31:15.157Z,9.51
2023-03-06T07:32:17.010Z,11.32
2023-03-06T07:33:18.809Z,14.82
2023-03-06T07:34:20.665Z,10.56
2023-03-06T07:35:22.579Z,12.88
2023-03-06T07:36:24.494Z,12.55
2023-03-06T07:37:26.299Z,11.78
2023-03-06T07:38:28.130Z,11.64
2023-03-06T07:39:30.085Z,12.25
2023-03-06T07:40:31.887Z,10.19
2023-03-06T07:41:33.738Z,10.19
2023-03-06T07:42:35.578Z,10.84
2023-03-06T07:43:37.372Z,10.94
2023-03-06T07:44:39.242Z,12.35
2023-03-06T07:45:41.046Z,10.39
2023-03-06T07:46:43.021Z,10.42
2023-03-06T07:47:44.850Z,9.20
2023-03-06T07:48:46.662Z,7.91
2023-03-06T07:49:48.511Z,7.31
2023-03-06T07:50:50.319Z,6.81
2023-03-06T07:51:52.127Z,8.43
2023-03-06T07:52:53.938Z,7.53
2023-03-06T07:53:55.764Z,7.65
2023-03-06T07:54:57.676Z,7.53
2023-03-06T07:55:59.550Z,8.16
2023-03-06T07:57:01.337Z,8.07
2023-03-06T07:58:03.158Z,9.08
2023-03-06T07:59:05.020Z,21.18
2023-03-06T08:00:07.063Z,26.05
2023-03-06T08:01:08.857Z,20.78
2023-03-06T08:02:10.682Z,9.00
2023-03-06T08:03:12.548Z,9.35
2023-03-06T08:04:14.466Z,8.20
2023-03-06T08:05:16.369Z,9.26
2023-03-06T08:06:18.170Z,7.45
2023-03-06T08:07:20.437Z,8.26
2023-03-06T08:08:22.245Z,11.43
2023-03-06T08:09:24.096Z,8.29
2023-03-06T08:10:26.064Z,9.43
2023-03-06T08:11:27.858Z,8.17
2023-03-06T08:12:29.647Z,12.81
2023-03-06T08:13:31.625Z,9.94
2023-03-06T08:14:33.417Z,8.65
2023-03-06T08:15:35.276Z,9.03
2023-03-06T08:16:37.248Z,8.27
2023-03-06T08:17:39.048Z,8.86
2023-03-06T08:18:40.849Z,7.64
2023-03-06T08:19:42.659Z,7.49
2023-03-06T08:20:44.626Z,9.15
2023-03-06T08:21:46.421Z,7.00
2023-03-06T08:22:48.291Z,7.61
2023-03-06T08:23:50.063Z,8.89
2023-03-06T08:24:51.865Z,8.50
2023-03-06T08:25:53.763Z,7.70
2023-03-06T08:26:55.676Z,7.79
2023-03-06T08:27:57.485Z,6.70
2023-03-06T08:28:59.286Z,6.59
2023-03-06T08:30:01.101Z,7.38
2023-03-06T08:31:02.977Z,7.24
2023-03-06T08:32:04.854Z,7.63
2023-03-06T08:33:06.730Z,7.90
2023-03-06T08:34:08.585Z,9.56
2023-03-06T08:35:10.374Z,9.30
2023-03-06T08:36:12.327Z,11.77
2023-03-06T08:37:14.206Z,12.81
2023-03-06T08:38:15.975Z,11.86
2023-03-06T08:39:17.795Z,10.34
2023-03-06T08:40:19.762Z,8.97
2023-03-06T08:41:21.642Z,7.40
2023-03-06T08:42:23.470Z,10.24
2023-03-06T08:43:25.265Z,8.15
2023-03-06T08:44:27.072Z,10.97
2023-03-06T08:45:30.516Z,15.84
2023-03-06T08:46:32.568Z,13.46
2023-03-06T08:47:34.395Z,12.10
2023-03-06T08:48:36.213Z,8.61
2023-03-06T08:49:38.048Z,6.77
2023-03-06T08:50:39.953Z,6.79
2023-03-06T08:51:41.825Z,6.13
2023-03-06T08:52:43.662Z,5.95
2023-03-06T08:53:45.472Z,7.57
2023-03-06T08:54:47.706Z,8.94
2023-03-06T08:55:49.582Z,7.73
2023-03-06T08:56:51.450Z,5.71
2023-03-06T08:57:53.260Z,8.07
2023-03-06T08:58:54.982Z,10.04
2023-03-06T08:59:56.782Z,6.69
2023-03-06T09:00:58.654Z,6.80
2023-03-06T09:02:00.612Z,6.10
2023-03-06T09:03:02.480Z,7.47
2023-03-06T09:04:04.313Z,7.78
2023-03-06T09:05:06.144Z,8.22
2023-03-06T09:06:08.224Z,8.47
2023-03-06T09:07:10.048Z,6.29
2023-03-06T09:08:11.850Z,7.94
2023-03-06T09:09:13.659Z,8.05
2023-03-06T09:10:15.731Z,5.96
2023-03-06T09:11:17.514Z,6.00
2023-03-06T09:12:19.362Z,10.29
2023-03-06T09:13:21.163Z,7.25
2023-03-06T09:14:22.985Z,7.53
2023-03-06T09:15:24.839Z,7.43
2023-03-06T09:16:26.822Z,7.30
2023-03-06T09:17:28.766Z,6.56
2023-03-06T09:18:30.632Z,7.63
2023-03-06T09:19:32.428Z,6.87
2023-03-06T09:20:34.246Z,6.45
2023-03-06T09:21:36.070Z,4.96
2023-03-06T09:22:37.950Z,7.01
2023-03-06T09:23:39.810Z,6.99
2023-03-06T09:24:41.618Z,4.72
2023-03-06T09:25:43.476Z,5.68
2023-03-06T09:26:47.190Z,5.10
2023-03-06T09:27:58.242Z,4.30
2023-03-06T09:28:52.589Z,6.64
2023-03-06T09:29:54.395Z,7.37
2023-03-06T09:30:56.428Z,5.12
2023-03-06T09:31:58.232Z,8.88
2023-03-06T09:33:00.112Z,7.30
2023-03-06T09:34:01.887Z,6.25
2023-03-06T09:35:03.699Z,8.24
2023-03-06T09:36:05.523Z,12.76
2023-03-06T09:37:07.353Z,8.78
2023-03-06T09:38:10.695Z,7.16
2023-03-06T09:39:12.493Z,6.97
2023-03-06T09:40:14.307Z,6.35
2023-03-06T09:41:16.132Z,8.55
2023-03-06T09:42:17.912Z,7.97
2023-03-06T09:43:19.830Z,7.27
2023-03-06T09:44:21.654Z,6.47
2023-03-06T09:45:23.449Z,8.89
2023-03-06T09:46:25.292Z,5.81
2023-03-06T09:47:27.051Z,9.01
2023-03-06T09:48:28.943Z,8.63
2023-03-06T09:49:30.751Z,8.26
2023-03-06T09:50:32.548Z,8.40
2023-03-06T09:51:34.353Z,8.28
2023-03-06T09:52:36.188Z,9.07
2023-03-06T09:53:38.046Z,9.67
2023-03-06T09:54:39.855Z,9.95
2023-03-06T09:55:41.674Z,8.91
2023-03-06T09:56:43.581Z,23.55
2023-03-06T09:57:45.394Z,15.49
2023-03-06T09:58:47.257Z,15.89
2023-03-06T09:59:49.053Z,13.21
2023-03-06T10:00:51.074Z,14.31
2023-03-06T10:01:52.886Z,10.11
2023-03-06T10:02:54.913Z,10.21
2023-03-06T10:03:56.841Z,10.83
2023-03-06T10:04:58.713Z,9.05
2023-03-06T10:06:02.656Z,10.35
2023-03-06T10:07:04.243Z,10.26
2023-03-06T10:08:06.067Z,7.33
2023-03-06T10:09:07.934Z,8.21
2023-03-06T10:10:10.832Z,8.77
2023-03-06T10:11:12.680Z,6.86
2023-03-06T10:12:14.493Z,7.28
2023-03-06T10:13:16.348Z,7.51
2023-03-06T10:14:18.190Z,11.34
2023-03-06T10:15:19.984Z,8.18
2023-03-06T10:16:21.823Z,9.63
2023-03-06T10:17:23.733Z,6.79
2023-03-06T10:18:25.612Z,6.09
2023-03-06T10:19:27.480Z,8.09
2023-03-06T10:20:29.305Z,7.40
2023-03-06T10:21:31.131Z,8.86
2023-03-06T10:22:32.927Z,9.32
2023-03-06T10:23:34.803Z,8.31
2023-03-06T10:24:36.636Z,12.87
2023-03-06T10:25:38.451Z,8.68
2023-03-06T10:26:40.424Z,7.07
2023-03-06T10:27:42.266Z,7.55
2023-03-06T10:28:44.136Z,8.97
2023-03-06T10:30:01.242Z,8.32
2023-03-06T10:30:49.678Z,8.68
2023-03-06T10:31:51.443Z,6.83
2023-03-06T10:32:53.396Z,6.83
2023-03-06T10:33:55.239Z,7.28
2023-03-06T10:34:57.087Z,9.65
2023-03-06T10:35:58.927Z,14.17
2023-03-06T10:37:00.710Z,18.11
2023-03-06T10:38:02.530Z,14.46
2023-03-06T10:39:04.359Z,12.73
2023-03-06T10:40:07.854Z,8.25
2023-03-06T10:41:10.127Z,9.42
2023-03-06T10:42:11.966Z,7.33
2023-03-06T10:43:13.779Z,10.76
2023-03-06T10:44:15.594Z,13.56
2023-03-06T10:45:17.458Z,34.46
2023-03-06T10:46:19.283Z,28.88
2023-03-06T10:47:22.468Z,23.72
2023-03-06T10:48:24.270Z,15.63
2023-03-06T10:49:26.071Z,9.79
2023-03-06T10:50:27.940Z,11.81
2023-03-06T10:51:29.782Z,12.21
2023-03-06T10:52:31.601Z,14.93
2023-03-06T10:53:33.512Z,12.55
2023-03-06T10:54:35.322Z,9.35
2023-03-06T10:55:37.186Z,8.95
2023-03-06T10:56:38.980Z,8.53
2023-03-06T10:57:40.797Z,8.86
2023-03-06T10:58:42.598Z,8.72
2023-03-06T10:59:44.395Z,10.29
2023-03-06T11:00:46.255Z,8.43
2023-03-06T11:01:48.134Z,9.16
2023-03-06T11:02:49.964Z,7.99
2023-03-06T11:03:51.748Z,6.89
2023-03-06T11:04:53.612Z,9.84
2023-03-06T11:05:55.393Z,7.81
2023-03-06T11:06:57.309Z,8.10
2023-03-06T11:07:59.135Z,6.04
2023-03-06T11:09:00.949Z,7.27
2023-03-06T11:10:02.779Z,7.68
2023-03-06T11:11:04.625Z,8.05
2023-03-06T11:12:06.440Z,7.95
2023-03-06T11:13:08.232Z,7.48
2023-03-06T11:14:10.049Z,7.06
2023-03-06T11:15:11.854Z,5.89
2023-03-06T11:16:14.079Z,7.44
2023-03-06T11:17:15.822Z,6.72
2023-03-06T11:18:17.624Z,10.22
2023-03-06T11:19:19.516Z,7.60
2023-03-06T11:20:21.640Z,9.61
2023-03-06T11:21:23.498Z,7.26
2023-03-06T11:22:25.348Z,5.93
2023-03-06T11:23:27.151Z,8.06
2023-03-06T11:24:28.959Z,9.51
2023-03-06T11:25:30.747Z,7.83
2023-03-06T11:26:32.732Z,8.21
2023-03-06T11:27:34.597Z,8.16
2023-03-06T11:28:36.451Z,9.22
2023-03-06T11:29:39.037Z,21.72
2023-03-06T11:30:40.922Z,27.16
2023-03-06T11:31:42.840Z,13.16
2023-03-06T11:32:44.667Z,9.07
2023-03-06T11:33:46.484Z,10.82
2023-03-06T11:34:50.391Z,11.49
2023-03-06T11:35:52.050Z,9.88
2023-03-06T11:36:53.889Z,11.86
2023-03-06T11:37:55.695Z,9.87
2023-03-06T11:38:57.508Z,9.40
2023-03-06T11:39:59.341Z,11.39
2023-03-06T11:41:01.156Z,10.98
2023-03-06T11:42:02.993Z,8.29
2023-03-06T11:43:04.784Z,9.47
2023-03-06T11:44:06.606Z,8.17
2023-03-06T11:45:08.762Z,8.35
2023-03-06T11:46:10.766Z,7.80
2023-03-06T11:47:12.643Z,7.83
2023-03-06T11:48:14.457Z,7.86
2023-03-06T11:49:16.262Z,6.91
2023-03-06T11:50:18.411Z,9.49
2023-03-06T11:51:20.290Z,8.58
2023-03-06T11:52:22.083Z,7.01
2023-03-06T11:53:23.899Z,13.55
2023-03-06T11:54:25.697Z,11.90
2023-03-06T11:55:27.500Z,14.93
2023-03-06T11:56:31.447Z,10.18
2023-03-06T11:57:34.611Z,8.62
2023-03-06T11:58:36.423Z,8.34
2023-03-06T11:59:38.226Z,9.46
2023-03-06T12:00:40.041Z,6.67
2023-03-06T12:01:41.918Z,7.44
2023-03-06T12:02:43.834Z,6.29
2023-03-06T12:03:45.632Z,7.64
2023-03-06T12:04:47.456Z,8.54
2023-03-06T12:05:49.248Z,8.31
2023-03-06T12:06:51.170Z,8.90
2023-03-06T12:07:53.030Z,9.87
2023-03-06T12:08:54.826Z,9.21
2023-03-06T12:09:56.671Z,9.94
2023-03-06T12:10:58.475Z,9.99
2023-03-06T12:12:00.296Z,11.29
2023-03-06T12:13:02.176Z,9.25
2023-03-06T12:14:04.308Z,16.92
2023-03-06T12:15:06.293Z,11.68
2023-03-06T12:16:08.530Z,11.27
2023-03-06T12:17:10.307Z,11.81
2023-03-06T12:18:12.150Z,8.69
2023-03-06T12:19:13.952Z,10.04
2023-03-06T12:20:15.923Z,14.87
2023-03-06T12:21:17.684Z,13.55
2023-03-06T12:22:19.471Z,11.26
2023-03-06T12:23:21.321Z,12.49
2023-03-06T12:24:23.148Z,15.93
2023-03-06T12:25:24.968Z,16.02
2023-03-06T12:26:26.782Z,16.41
2023-03-06T12:27:28.588Z,13.56
2023-03-06T12:28:30.444Z,10.95
2023-03-06T12:29:32.245Z,10.84
2023-03-06T12:30:34.054Z,12.49
2023-03-06T12:31:35.892Z,13.09
2023-03-06T12:32:37.721Z,13.96
2023-03-06T12:33:39.602Z,10.65
2023-03-06T12:34:41.408Z,11.32
2023-03-06T12:35:43.202Z,10.49
2023-03-06T12:36:45.012Z,12.61
2023-03-06T12:37:46.817Z,12.79
2023-03-06T12:38:48.684Z,13.89
2023-03-06T12:39:50.511Z,14.97
2023-03-06T12:40:52.402Z,12.03
2023-03-06T12:41:54.204Z,11.54
2023-03-06T12:42:56.019Z,10.93
2023-03-06T12:43:57.882Z,9.17
2023-03-06T12:44:59.693Z,10.83
2023-03-06T12:46:01.535Z,11.79
2023-03-06T12:47:03.297Z,7.43
2023-03-06T12:48:05.110Z,8.63
2023-03-06T12:49:06.964Z,8.84
2023-03-06T12:50:09.067Z,8.51
2023-03-06T12:51:10.895Z,9.61
2023-03-06T12:52:16.038Z,10.09
2023-03-06T12:53:16.304Z,10.24
2023-03-06T12:54:18.167Z,9.83
2023-03-06T12:55:23.713Z,11.53
2023-03-06T12:56:23.579Z,10.43
2023-03-06T12:57:25.412Z,10.57
2023-03-06T12:58:27.218Z,13.01
2023-03-06T12:59:29.057Z,13.13
2023-03-06T13:00:30.871Z,12.10
2023-03-06T13:01:32.709Z,8.40
2023-03-06T13:02:34.581Z,8.75
2023-03-06T13:03:36.389Z,8.08
2023-03-06T13:04:38.290Z,9.13
2023-03-06T13:05:40.113Z,8.83
2023-03-06T13:06:49.837Z,13.87
2023-03-06T13:07:45.535Z,9.21
2023-03-06T13:08:47.339Z,8.16
2023-03-06T13:09:49.190Z,8.69
2023-03-06T13:10:51.000Z,9.90
2023-03-06T13:11:52.822Z,9.71
2023-03-06T13:12:54.628Z,9.94
2023-03-06T13:13:56.430Z,10.80
2023-03-06T13:14:58.420Z,11.80
2023-03-06T13:16:00.233Z,12.75
2023-03-06T13:17:02.063Z,12.94
2023-03-06T13:18:03.886Z,11.87
2023-03-06T13:19:05.701Z,16.55
2023-03-06T13:20:07.564Z,10.23
2023-03-06T13:21:09.418Z,9.88
2023-03-06T13:22:11.213Z,9.08
2023-03-06T13:23:14.678Z,10.94
2023-03-06T13:24:16.470Z,11.15
2023-03-06T13:25:18.343Z,11.40